Costa Atlantica — IBLQ — position and weather

sailwx.info

Track history (hours):
 
Tides and Currents Weather Stations Pressure Air Temp Water Temp Dewpoint Dewpoint Depression Visibility Wind Speed Wind Dir Waves Ship Positions

Costa Atlantica (Italy)

Last reported at 2018-Feb-16 15:38 UTC. Time now 2018-Feb-18 10:48 UTC.
Position N 23°11' E 117°45'.

Length 292 m; draft 8 m.

Type: Ship. MMSI: 247645000.

Date/timePositionNaut miles runAvg speedWind from/ knotsBaromVisibWave heightAir tempDewpointWater temp
2018-Feb-16 15:38N 23°11' E 117°45'520.1
2018-Feb-16 15:23N 23°14' E 117°49'1119.8
2018-Feb-16 14:49N 23°20' E 117°59'819.8
2018-Feb-16 14:24N 23°25' E 118°06'2319.9
2018-Feb-16 13:15N 23°38' E 118°27'519.8
2018-Feb-16 13:00N 23°41' E 118°31'1120.0
2018-Feb-16 12:26N 23°48' E 118°41'2919.9
2018-Feb-16 10:59N 24°05' E 119°07'13220.4
2018-Feb-16 04:30N 25°16' E 121°09'1120.3
2018-Feb-16 03:57N 25°20' E 121°21'1220.9
2018-Feb-16 03:22N 25°23' E 121°34'821.1
2018-Feb-16 03:00N 25°26' E 121°42'1122.0
2018-Feb-16 02:31N 25°29' E 121°53'1521.5
2018-Feb-16 01:48N 25°33' E 122°10'722.5
2018-Feb-16 01:30N 25°34' E 122°17'1122.7
2018-Feb-16 01:00N 25°34' E 122°30'112 2.9
2018-Feb-14 10:34N 24°23' E 124°04'214.9
2018-Feb-14 10:24N 24°21' E 124°06'37 2.3
2018-Feb-13 18:07N 24°39' E 123°31'213.7
2018-Feb-13 18:00N 24°40' E 123°29'817.1
2018-Feb-13 17:31N 24°43' E 123°21'917.9
2018-Feb-13 17:00N 24°47' E 123°12'918.0
2018-Feb-13 16:31N 24°50' E 123°03'917.5
2018-Feb-13 16:00N 24°53' E 122°54'917.9
2018-Feb-13 15:31N 24°57' E 122°45'918.1
2018-Feb-13 15:01N 25°00' E 122°35'917.5
2018-Feb-13 14:31N 25°04' E 122°26'2617.5
2018-Feb-13 13:01N 25°14' E 122°00'316.8
2018-Feb-13 12:52N 25°15' E 121°57'616.6
2018-Feb-13 12:30N 25°17' E 121°51'816.8
2018-Feb-13 12:00N 25°21' E 121°43'815.3
2018-Feb-13 11:30N 25°24' E 121°35'1115.1
2018-Feb-13 10:48N 25°20' E 121°24'515.7
2018-Feb-13 10:28N 25°19' E 121°18'816.2
2018-Feb-13 10:00N 25°17' E 121°10'816.4
2018-Feb-13 09:30N 25°14' E 121°02'917.1
2018-Feb-13 09:00N 25°12' E 120°52'1017.4
2018-Feb-13 08:25N 25°07' E 120°43'1017.6
2018-Feb-13 07:51N 25°01' E 120°34'617.7
2018-Feb-13 07:30N 24°58' E 120°28'17519.7
2018-Feb-12 22:38N 23°15' E 117°53'320.9
2018-Feb-12 22:29N 23°14' E 117°50'257 6.2
2018-Feb-11 05:26N 19°09' E 116°28'716.5
2018-Feb-11 05:00N 19°02' E 116°31'  
Track history (hours):
 
Tides and Currents Weather Stations Pressure Air Temp Water Temp Dewpoint Dewpoint Depression Visibility Wind Speed Wind Dir Waves Ship Positions

Costa Atlantica (Italy)

Last reported at 2018-Feb-16 15:38 UTC. Time now 2018-Feb-18 10:48 UTC.
Position N 23°11' E 117°45'.

Length 292 m; draft 8 m.

Type: Ship. MMSI: 247645000.

Date/timePositionNaut miles runAvg speedWind from/ knotsBaromVisibWave heightAir tempDewpointWater temp
2018-Feb-16 15:38N 23°11' E 117°45'520.1
2018-Feb-16 15:23N 23°14' E 117°49'1119.8
2018-Feb-16 14:49N 23°20' E 117°59'819.8
2018-Feb-16 14:24N 23°25' E 118°06'2319.9
2018-Feb-16 13:15N 23°38' E 118°27'519.8
2018-Feb-16 13:00N 23°41' E 118°31'1120.0
2018-Feb-16 12:26N 23°48' E 118°41'2919.9
2018-Feb-16 10:59N 24°05' E 119°07'13220.4
2018-Feb-16 04:30N 25°16' E 121°09'1120.3
2018-Feb-16 03:57N 25°20' E 121°21'1220.9
2018-Feb-16 03:22N 25°23' E 121°34'821.1
2018-Feb-16 03:00N 25°26' E 121°42'1122.0
2018-Feb-16 02:31N 25°29' E 121°53'1521.5
2018-Feb-16 01:48N 25°33' E 122°10'722.5
2018-Feb-16 01:30N 25°34' E 122°17'1122.7
2018-Feb-16 01:00N 25°34' E 122°30'112 2.9
2018-Feb-14 10:34N 24°23' E 124°04'214.9
2018-Feb-14 10:24N 24°21' E 124°06'37 2.3
2018-Feb-13 18:07N 24°39' E 123°31'213.7
2018-Feb-13 18:00N 24°40' E 123°29'817.1
2018-Feb-13 17:31N 24°43' E 123°21'917.9
2018-Feb-13 17:00N 24°47' E 123°12'918.0
2018-Feb-13 16:31N 24°50' E 123°03'917.5
2018-Feb-13 16:00N 24°53' E 122°54'917.9
2018-Feb-13 15:31N 24°57' E 122°45'918.1
2018-Feb-13 15:01N 25°00' E 122°35'917.5
2018-Feb-13 14:31N 25°04' E 122°26'2617.5
2018-Feb-13 13:01N 25°14' E 122°00'316.8
2018-Feb-13 12:52N 25°15' E 121°57'616.6
2018-Feb-13 12:30N 25°17' E 121°51'816.8
2018-Feb-13 12:00N 25°21' E 121°43'815.3
2018-Feb-13 11:30N 25°24' E 121°35'1115.1
2018-Feb-13 10:48N 25°20' E 121°24'515.7
2018-Feb-13 10:28N 25°19' E 121°18'816.2
2018-Feb-13 10:00N 25°17' E 121°10'816.4
2018-Feb-13 09:30N 25°14' E 121°02'917.1
2018-Feb-13 09:00N 25°12' E 120°52'1017.4
2018-Feb-13 08:25N 25°07' E 120°43'1017.6
2018-Feb-13 07:51N 25°01' E 120°34'617.7
2018-Feb-13 07:30N 24°58' E 120°28'17519.7
2018-Feb-12 22:38N 23°15' E 117°53'320.9
2018-Feb-12 22:29N 23°14' E 117°50'257 6.2
2018-Feb-11 05:26N 19°09' E 116°28'716.5
2018-Feb-11 05:00N 19°02' E 116°31'  

Dump ship's entire track history